FMMI/TNR METAR and TAF weather

Enter ICAO airport designator
Station Type Date Time Source
FMMI METAR 2024/07/24 12:00 UTC NOAA

FMMI 241200Z 08004KT 030V130 9999 SCT020 21/07 Q1022 NOSIG


Station Type Date Time Source
FMMI Decoded METAR 2024/07/24 12:00 UTC NOAA

Antananarivo / Ivato, Madagascar (FMMI) 18-48S 047-29E 1276M
Jul 24, 2024 - 08:00 AM EDT / 2024.07.24 1200 UTC
Wind: from the E (080 degrees) at 5 MPH (4 KT) (direction variable):0
Visibility: greater than 7 mile(s):0
Sky conditions: partly cloudy
Temperature: 69 F (21 C)
Dew Point: 44 F (7 C)
Relative Humidity: 40%
Pressure (altimeter): 30.18 in. Hg (1022 hPa)
ob: FMMI 241200Z 08004KT 030V130 9999 SCT020 21/07 Q1022 NOSIG
cycle: 12

Station Type Date Time Source
FMMI TAF 2024/07/24 12:12 UTC NOAA